Friday, November 24, 2017, 12:38 AM EST
Back to Local

K1P1, Plymouth, Plymouth Municipal Airport

Location: Plymouth, NH, United States Lat: 43.779
Local Time: 12:38 AM EST ( 5:38 GMT) Lon: -71.754
Time Zone: US/Eastern Elev: 505 ft

Show me the last for .
Show Decoded

2017-11-24 00:15 METAR K1P1 240515Z AUTO 00000KT 10SM OVC090 M02/M07 A2993 RMK AO2 T10181074 =
2017-11-23 23:55 METAR K1P1 240455Z AUTO 28003KT 10SM OVC090 M02/M07 A2993 RMK AO2 T10171074 =
2017-11-23 23:31 METAR K1P1 240435Z AUTO 00000KT 10SM OVC090 M02/M07 A2993 RMK AO2 T10201067 =
2017-11-23 23:15 METAR K1P1 240415Z AUTO 00000KT 10SM OVC090 M02/M06 A2994 RMK AO2 T10191065 =
2017-11-23 22:55 METAR K1P1 240355Z AUTO 00000KT 10SM OVC100 M02/M08 A2994 RMK AO2 T10171077
                 400081045 =
2017-11-23 22:35 METAR K1P1 240335Z AUTO 00000KT 10SM OVC100 M02/M08 A2994 RMK AO2 T10181076 =
2017-11-23 22:15 METAR K1P1 240315Z AUTO 00000KT 10SM OVC100 M01/M08 A2994 RMK AO2 T10151077 =
2017-11-23 21:55 METAR K1P1 240255Z AUTO 26003KT 10SM OVC100 M02/M07 A2995 RMK AO2 T10201073 =
2017-11-23 21:35 METAR K1P1 240235Z AUTO 00000KT 10SM OVC100 M02/M07 A2994 RMK AO2 T10221069 =
2017-11-23 21:15 METAR K1P1 240215Z AUTO 00000KT 10SM OVC100 M02/M08 A2994 RMK AO2 T10211076 =
2017-11-23 20:55 METAR K1P1 240155Z AUTO 00000KT 10SM OVC100 M02/M07 A2995 RMK AO2 T10201072 =
2017-11-23 20:31 METAR K1P1 240135Z AUTO 07004KT 10SM OVC100 M02/M07 A2994 RMK AO2 T10201073 =
2017-11-23 20:15 METAR K1P1 240115Z AUTO 00000KT 10SM OVC100 M02/M06 A2995 RMK AO2 T10201063 =
2017-11-23 19:55 METAR K1P1 240055Z AUTO 00000KT 10SM OVC100 M02/M07 A2996 RMK AO2 T10201073 =
2017-11-23 19:35 METAR K1P1 240035Z AUTO 00000KT 10SM OVC100 M02/M07 A2996 RMK AO2 T10211069 =
2017-11-23 19:15 METAR K1P1 240015Z AUTO 00000KT 10SM OVC100 M02/M07 A2995 RMK AO2 T10191069 =
2017-11-23 18:55 METAR K1P1 232355Z AUTO 00000KT 10SM OVC100 M02/M07 A2995 RMK AO2 T10201075
                 11007 21022 =
2017-11-23 18:35 METAR K1P1 232335Z AUTO 00000KT 10SM OVC110 M02/M07 A2996 RMK AO2 T10201075 =
2017-11-23 18:15 METAR K1P1 232315Z AUTO 00000KT 10SM BKN110 M02/M08 A2996 RMK AO2 T10201080 =
2017-11-23 17:55 METAR K1P1 232255Z AUTO 00000KT 10SM BKN120 M02/M08 A2996 RMK AO2 T10181085 =
2017-11-23 17:35 METAR K1P1 232235Z AUTO 00000KT 10SM SCT120 M01/M09 A2996 RMK AO2 T10151090 =
2017-11-23 17:15 METAR K1P1 232215Z AUTO 00000KT 10SM SCT100 BKN120 M01/M09 A2996 RMK AO2
                 T10111088 =
2017-11-23 16:55 METAR K1P1 232155Z AUTO 00000KT 10SM OVC100 M01/M09 A2997 RMK AO2 T10081090 =
2017-11-23 16:35 METAR K1P1 232135Z AUTO 32004KT 10SM OVC100 M01/M09 A2997 RMK AO2 T10071094 =
2017-11-23 16:15 METAR K1P1 232115Z AUTO 29004KT 10SM OVC110 M01/M09 A2997 RMK AO2 T10071093 =
2017-11-23 15:55 METAR K1P1 232055Z AUTO 28006KT 10SM OVC110 M01/M09 A2997 RMK AO2 T10081092 =
2017-11-23 15:35 METAR K1P1 232035Z AUTO 27007KT 10SM OVC110 M01/M09 A2996 RMK AO2 T10071092 =
2017-11-23 15:15 METAR K1P1 232015Z AUTO 27006KT 10SM OVC110 M01/M09 A2996 RMK AO2 T10071094 =
2017-11-23 14:55 METAR K1P1 231955Z AUTO 28006KT 10SM OVC110 M01/M09 A2996 RMK AO2 T10081093 =
2017-11-23 14:31 METAR K1P1 231935Z AUTO 29006KT 10SM OVC120 M01/M09 A2996 RMK AO2 T10081092 =
2017-11-23 14:15 METAR K1P1 231915Z AUTO 28008G16KT 10SM OVC120 M01/M09 A2997 RMK AO2 T10091089 =
2017-11-23 13:55 METAR K1P1 231855Z AUTO 29007KT 10SM BKN120 M01/M09 A2997 RMK AO2 T10071088 =
2017-11-23 13:35 METAR K1P1 231835Z AUTO 27009G16KT 10SM SCT120 M01/M09 A2997 RMK AO2 T10101090 =
2017-11-23 13:15 METAR K1P1 231815Z AUTO 27009G17KT 10SM CLR M01/M09 A2997 RMK AO2 T10101094 =
2017-11-23 12:55 METAR K1P1 231755Z AUTO 28009G18KT 10SM CLR M01/M09 A2998 RMK AO2 T10121093
                 11012 21045 =
2017-11-23 12:35 METAR K1P1 231735Z AUTO 28009G15KT 10SM CLR M01/M09 A2998 RMK AO2 T10151094 =
2017-11-23 12:15 METAR K1P1 231715Z AUTO 27011G20KT 10SM CLR M01/M09 A2999 RMK AO2 T10151094 =
2017-11-23 11:55 METAR K1P1 231655Z AUTO 28009G18KT 10SM CLR M02/M09 A2999 RMK AO2 T10191094 =
2017-11-23 11:35 METAR K1P1 231635Z AUTO 27013G18KT 10SM CLR M02/M10 A3000 RMK AO2 T10221099 =
2017-11-23 11:15 METAR K1P1 231615Z AUTO 28012G20KT 10SM CLR M02/M10 A3001 RMK AO2 T10201099 =
2017-11-23 10:55 METAR K1P1 231555Z AUTO 28011G23KT 10SM CLR M02/M10 A3001 RMK AO2 T10251101 =
2017-11-23 10:35 METAR K1P1 231535Z AUTO 28014G19KT 10SM CLR M03/M10 A3002 RMK AO2 T10301101 =
2017-11-23 10:15 METAR K1P1 231515Z AUTO 27011G19KT 10SM CLR M04/M10 A3003 RMK AO2 T10361102 =
2017-11-23 09:55 METAR K1P1 231455Z AUTO 27014G19KT 10SM CLR M04/M10 A3003 RMK AO2 T10371104 =
2017-11-23 09:31 METAR K1P1 231435Z AUTO 27014G22KT 10SM CLR M03/M10 A3002 RMK AO2 T10351105 =
2017-11-23 09:15 METAR K1P1 231415Z AUTO 28010G19KT 10SM CLR M04/M11 A3002 RMK AO2 T10361106 =
2017-11-23 08:55 METAR K1P1 231355Z AUTO 28011G17KT 10SM CLR M04/M10 A3001 RMK AO2 T10361105 =
2017-11-23 08:35 METAR K1P1 231335Z AUTO 27007G14KT 10SM CLR M04/M10 A3003 RMK AO2 T10401102 =
2017-11-23 08:15 METAR K1P1 231315Z AUTO 27008KT 10SM CLR M04/M10 A3004 RMK AO2 T10411101 =
2017-11-23 07:55 METAR K1P1 231255Z AUTO 28009KT 10SM CLR M04/M10 A3004 RMK AO2 T10421100 =
2017-11-23 07:35 METAR K1P1 231235Z AUTO 28008KT 10SM CLR M04/M10 A3004 RMK AO2 T10451099 =
2017-11-23 07:15 METAR K1P1 231215Z AUTO 29009G15KT 10SM CLR M04/M10 A3004 RMK AO2 T10451097 =
2017-11-23 06:55 METAR K1P1 231155Z AUTO 29010G17KT 10SM CLR M04/M10 A3003 RMK AO2 T10431096
                 10000 21043 =
2017-11-23 06:35 METAR K1P1 231135Z AUTO 29010G16KT 10SM CLR M04/M10 A3002 RMK AO2 T10411096 =
2017-11-23 06:15 METAR K1P1 231115Z AUTO 30009G15KT 10SM CLR M04/M09 A3002 RMK AO2 T10401095 =
2017-11-23 05:55 METAR K1P1 231055Z AUTO 32008KT 10SM CLR M04/M09 A3001 RMK AO2 T10381093 =
2017-11-23 05:33 METAR K1P1 231035Z AUTO 31011G15KT 10SM CLR M04/M09 A3001 RMK AO2 T10361090 =
2017-11-23 05:15 METAR K1P1 231015Z AUTO 29010G15KT 250V320 10SM SCT030 SCT034 M03/M09 A3001 RMK
                 AO2 T10351087 =
2017-11-23 04:55 METAR K1P1 230955Z AUTO 30012G17KT 10SM BKN030 M03/M08 A3000 RMK AO2 T10331085 =
2017-11-23 04:35 METAR K1P1 230935Z AUTO 33010KT 10SM OVC028 M03/M08 A2999 RMK AO2 T10301083 =
2017-11-23 04:14 METAR K1P1 230915Z AUTO 31007KT 10SM OVC028 M03/M08 A3000 RMK AO2 T10281080 =
2017-11-23 03:55 METAR K1P1 230855Z AUTO 31006G15KT 10SM OVC026 M03/M08 A2999 RMK AO2 T10261080 =
2017-11-23 03:35 METAR K1P1 230835Z AUTO 31010KT 10SM BKN026 M02/M08 A2999 RMK AO2 T10251078 =
2017-11-23 03:15 METAR K1P1 230815Z AUTO 30011G17KT 10SM OVC026 M02/M07 A2999 RMK AO2 T10221073 =
2017-11-23 02:55 METAR K1P1 230755Z AUTO 31010G20KT 10SM OVC026 M02/M07 A2999 RMK AO2 T10181067 =
2017-11-23 02:35 METAR K1P1 230735Z AUTO 30009G14KT 10SM OVC026 M01/M06 A2999 RMK AO2 T10151063 =
2017-11-23 02:15 METAR K1P1 230715Z AUTO 30008KT 10SM OVC028 M01/M06 A2998 RMK AO2 T10121065 =
2017-11-23 01:55 METAR K1P1 230655Z AUTO 29012G17KT 10SM OVC028 M01/M06 A2997 RMK AO2 T10101063 =
2017-11-23 01:35 METAR K1P1 230635Z AUTO 31011G17KT 10SM OVC028 M01/M06 A2996 RMK AO2 T10071062 =
2017-11-23 01:15 METAR K1P1 230615Z AUTO 32009G18KT 300V360 10SM OVC028 00/M06 A2996 RMK AO2
                 T10031062 =
2017-11-23 00:55 METAR K1P1 230555Z AUTO 32013G20KT 10SM OVC032 00/M06 A2995 RMK AO2 T00001064
                 10030 20000 =

Support USWX by starting your Amazon purchase here.